createdAt,value
2019-06-27T00:01:27.931Z,101553.17
2019-06-27T00:03:56.496Z,101554.50
2019-06-27T00:06:25.076Z,101554.86
2019-06-27T00:08:53.709Z,101557.33
2019-06-27T00:11:22.298Z,101560.08
2019-06-27T00:13:50.888Z,101567.38
2019-06-27T00:16:19.490Z,101563.16
2019-06-27T00:18:48.082Z,101561.73
2019-06-27T00:21:16.671Z,101572.02
2019-06-27T00:23:45.967Z,101573.56
2019-06-27T00:26:14.621Z,101574.42
2019-06-27T00:28:43.220Z,101580.84
2019-06-27T00:31:11.824Z,101577.73
2019-06-27T00:33:40.491Z,101582.86
2019-06-27T00:36:09.070Z,101588.67
2019-06-27T00:38:37.685Z,101581.30
2019-06-27T00:41:06.274Z,101590.00
2019-06-27T00:43:34.896Z,101587.31
2019-06-27T00:46:03.477Z,101592.02
2019-06-27T00:48:32.113Z,101587.36
2019-06-27T00:51:00.709Z,101589.92
2019-06-27T00:53:29.365Z,101593.91
2019-06-27T00:55:57.966Z,101591.28
2019-06-27T00:58:26.620Z,101588.15
2019-06-27T01:00:55.204Z,101588.69
2019-06-27T01:03:23.810Z,101602.92
2019-06-27T01:05:52.398Z,101600.97
2019-06-27T01:08:21.017Z,101604.25
2019-06-27T01:10:49.605Z,101599.48
2019-06-27T01:13:18.313Z,101613.37
2019-06-27T01:15:46.900Z,101606.84
2019-06-27T01:18:15.488Z,101606.42
2019-06-27T01:20:44.147Z,101609.87
2019-06-27T01:23:12.862Z,101614.51
2019-06-27T01:25:41.430Z,101611.39
2019-06-27T01:28:10.080Z,101620.27
2019-06-27T01:30:38.696Z,101624.65
2019-06-27T01:33:07.343Z,101629.58
2019-06-27T01:35:35.905Z,101620.81
2019-06-27T01:38:04.614Z,101618.74
2019-06-27T01:40:33.204Z,101623.73
2019-06-27T01:43:01.913Z,101628.72
2019-06-27T01:45:37.793Z,101638.86
2019-06-27T01:48:06.555Z,101639.22
2019-06-27T01:50:35.304Z,101638.53
2019-06-27T01:53:04.034Z,101638.84
2019-06-27T01:55:32.601Z,101645.50
2019-06-27T01:58:01.294Z,101650.67
2019-06-27T02:00:29.992Z,101654.60
2019-06-27T02:02:58.744Z,101650.41
2019-06-27T02:05:27.305Z,101653.67
2019-06-27T02:07:56.043Z,101652.88
2019-06-27T02:10:24.669Z,101645.02
2019-06-27T02:12:53.420Z,101664.89
2019-06-27T02:15:22.551Z,101651.98
2019-06-27T02:17:51.152Z,101669.10
2019-06-27T02:20:19.860Z,101662.53
2019-06-27T02:22:48.495Z,101662.23
2019-06-27T02:25:17.812Z,101659.02
2019-06-27T02:28:02.147Z,101664.26
2019-06-27T02:30:19.939Z,101665.82
2019-06-27T02:32:48.578Z,101672.50
2019-06-27T02:35:17.344Z,101671.67
2019-06-27T02:37:46.071Z,101667.17
2019-06-27T02:40:14.637Z,101666.95
2019-06-27T02:42:43.297Z,101676.95
2019-06-27T02:45:12.237Z,101675.04
2019-06-27T02:47:40.878Z,101672.80
2019-06-27T02:50:09.506Z,101675.19
2019-06-27T02:52:38.158Z,101672.38
2019-06-27T02:55:06.820Z,101678.34
2019-06-27T02:57:35.510Z,101666.48
2019-06-27T03:00:06.019Z,101676.59
2019-06-27T03:02:34.632Z,101679.36
2019-06-27T03:05:04.847Z,101684.16
2019-06-27T03:07:33.484Z,101685.86
2019-06-27T03:10:02.155Z,101683.38
2019-06-27T03:12:31.030Z,101686.89
2019-06-27T03:14:59.640Z,101689.77
2019-06-27T03:17:28.337Z,101693.33
2019-06-27T03:19:56.895Z,101686.05
2019-06-27T03:22:25.571Z,101695.08
2019-06-27T03:24:54.155Z,101689.05
2019-06-27T03:27:22.784Z,101685.50
2019-06-27T03:29:51.369Z,101691.56
2019-06-27T03:32:20.075Z,101695.71
2019-06-27T03:34:48.641Z,101709.05
2019-06-27T03:37:17.251Z,101698.47
2019-06-27T03:39:45.906Z,101708.58
2019-06-27T03:42:14.489Z,101711.20
2019-06-27T03:44:43.109Z,101709.17
2019-06-27T03:47:11.729Z,101709.39
2019-06-27T03:49:40.315Z,101708.48
2019-06-27T03:52:08.965Z,101715.11
2019-06-27T03:54:37.563Z,101711.77
2019-06-27T03:57:06.166Z,101709.34
2019-06-27T03:59:34.780Z,101708.02
2019-06-27T04:02:03.432Z,101714.32
2019-06-27T04:04:32.067Z,101712.94
2019-06-27T04:07:00.655Z,101714.02
2019-06-27T04:09:29.244Z,101714.20
2019-06-27T04:11:57.808Z,101710.73
2019-06-27T04:14:26.458Z,101714.83
2019-06-27T04:16:55.017Z,101717.76
2019-06-27T04:19:23.663Z,101724.66
2019-06-27T04:21:52.242Z,101726.67
2019-06-27T04:24:20.828Z,101738.68
2019-06-27T04:26:49.521Z,101730.33
2019-06-27T04:29:32.768Z,101726.94
2019-06-27T04:31:48.426Z,101725.52
2019-06-27T04:34:19.924Z,101724.67
2019-06-27T04:36:47.382Z,101728.62
2019-06-27T04:39:16.010Z,101722.89
2019-06-27T04:41:44.640Z,101732.21
2019-06-27T04:44:13.289Z,101728.94
2019-06-27T04:46:42.294Z,101730.88
2019-06-27T04:49:13.593Z,101730.23
2019-06-27T04:51:41.285Z,101728.98
2019-06-27T04:54:09.958Z,101732.77
2019-06-27T04:56:38.563Z,101736.75
2019-06-27T04:59:07.175Z,101738.03
2019-06-27T05:01:35.742Z,101747.05
2019-06-27T05:04:04.351Z,101737.42
2019-06-27T05:06:32.980Z,101741.73
2019-06-27T05:09:01.616Z,101744.74
2019-06-27T05:11:30.195Z,101746.73
2019-06-27T05:13:58.824Z,101744.09
2019-06-27T05:16:27.380Z,101747.24
2019-06-27T05:18:55.992Z,101743.89
2019-06-27T05:21:24.553Z,101743.02
2019-06-27T05:23:53.156Z,101740.64
2019-06-27T05:26:21.720Z,101741.70
2019-06-27T05:28:50.354Z,101742.23
2019-06-27T05:31:18.907Z,101740.75
2019-06-27T05:33:47.630Z,101739.86
2019-06-27T05:36:16.200Z,101744.76
2019-06-27T05:38:45.586Z,101754.94
2019-06-27T05:41:14.170Z,101742.99
2019-06-27T05:43:42.790Z,101746.94
2019-06-27T05:46:11.353Z,101746.73
2019-06-27T05:48:40.020Z,101745.87
2019-06-27T05:51:08.556Z,101751.26
2019-06-27T05:53:37.196Z,101749.97
2019-06-27T05:56:05.822Z,101756.77
2019-06-27T06:40:10.099Z,101768.86
2019-06-27T06:42:38.926Z,101760.21
2019-06-27T06:45:08.021Z,101761.52
2019-06-27T06:47:36.589Z,101753.72
2019-06-27T06:50:06.490Z,101759.94
2019-06-27T06:52:35.065Z,101756.97
2019-06-27T06:55:05.150Z,101753.02
2019-06-27T06:57:33.724Z,101763.55
2019-06-27T07:00:02.270Z,101762.55
2019-06-27T07:02:30.846Z,101758.19
2019-06-27T07:04:59.355Z,101770.38
2019-06-27T07:07:27.913Z,101772.42
2019-06-27T07:09:56.426Z,101765.52
2019-06-27T07:12:24.976Z,101761.93
2019-06-27T07:14:53.502Z,101757.25
2019-06-27T07:17:24.527Z,101760.77
2019-06-27T07:19:53.021Z,101756.90
2019-06-27T07:22:21.518Z,101762.50
2019-06-27T07:24:49.998Z,101761.44
2019-06-27T07:27:18.544Z,101775.47
2019-06-27T07:29:47.083Z,101782.98
2019-06-27T07:32:15.999Z,101769.94
2019-06-27T07:34:45.069Z,101777.02
2019-06-27T07:37:13.581Z,101783.05
2019-06-27T07:39:42.141Z,101779.30
2019-06-27T07:42:10.615Z,101791.41
2019-06-27T07:44:39.134Z,101787.45
2019-06-27T07:47:07.661Z,101775.81
2019-06-27T07:49:36.221Z,101793.93
2019-06-27T07:52:04.704Z,101782.56
2019-06-27T07:54:33.257Z,101784.63
2019-06-27T07:57:01.786Z,101786.26
2019-06-27T07:59:30.337Z,101783.42
2019-06-27T08:01:58.840Z,101775.56
2019-06-27T08:04:28.004Z,101782.48
2019-06-27T08:06:56.840Z,101780.64
2019-06-27T08:09:25.349Z,101779.53
2019-06-27T08:11:53.912Z,101769.55
2019-06-27T08:14:22.530Z,101772.71
2019-06-27T08:16:51.527Z,101765.84
2019-06-27T08:19:20.010Z,101784.66
2019-06-27T08:21:48.535Z,101774.03
2019-06-27T08:24:17.098Z,101776.88
2019-06-27T08:26:45.624Z,101777.49
2019-06-27T08:29:14.211Z,101774.59
2019-06-27T08:31:51.368Z,101780.33
2019-06-27T08:34:13.036Z,101778.38
2019-06-27T08:36:41.512Z,101771.94
2019-06-27T08:39:10.371Z,101783.68
2019-06-27T08:41:38.884Z,101781.25
2019-06-27T08:44:09.502Z,101778.67
2019-06-27T08:46:37.958Z,101776.62
2019-06-27T08:49:06.513Z,101761.78
2019-06-27T08:51:34.989Z,101763.08
2019-06-27T08:54:03.493Z,101776.94
2019-06-27T08:56:33.523Z,101772.49
2019-06-27T08:59:02.111Z,101776.38
2019-06-27T09:01:30.603Z,101765.57
2019-06-27T09:03:59.199Z,101757.53
2019-06-27T09:06:27.651Z,101762.34
2019-06-27T09:08:56.205Z,101769.65
2019-06-27T09:11:24.706Z,101766.39
2019-06-27T09:13:53.230Z,101758.28
2019-06-27T09:16:21.736Z,101762.81
2019-06-27T09:18:50.203Z,101750.30
2019-06-27T09:21:18.703Z,101759.27
2019-06-27T09:23:47.225Z,101757.37
2019-06-27T09:26:15.726Z,101751.81
2019-06-27T09:28:44.676Z,101743.81
2019-06-27T09:31:13.194Z,101748.42
2019-06-27T09:33:41.860Z,101754.45
2019-06-27T09:36:10.376Z,101744.88
2019-06-27T09:38:38.930Z,101743.03
2019-06-27T09:41:07.438Z,101740.53
2019-06-27T09:43:35.985Z,101743.05
2019-06-27T09:46:04.442Z,101741.77
2019-06-27T09:48:33.370Z,101753.77
2019-06-27T09:51:01.895Z,101744.23
2019-06-27T09:53:30.522Z,101750.41
2019-06-27T09:55:59.002Z,101747.65
2019-06-27T09:58:27.955Z,101749.94
2019-06-27T10:00:57.230Z,101744.97
2019-06-27T10:03:25.866Z,101747.48
2019-06-27T10:05:54.347Z,101743.81
2019-06-27T10:08:22.879Z,101747.17
2019-06-27T10:10:51.377Z,101744.75
2019-06-27T10:13:19.916Z,101741.92
2019-06-27T10:15:48.408Z,101742.37
2019-06-27T10:18:16.963Z,101748.14
2019-06-27T10:20:45.479Z,101741.55
2019-06-27T10:23:15.147Z,101743.47
2019-06-27T10:25:43.976Z,101744.38
2019-06-27T10:28:12.823Z,101743.62
2019-06-27T10:30:41.342Z,101759.42
2019-06-27T10:33:09.887Z,101753.72
2019-06-27T10:35:38.374Z,101740.12
2019-06-27T10:38:06.960Z,101744.11
2019-06-27T10:40:35.739Z,101755.40
2019-06-27T10:43:04.666Z,101740.89
2019-06-27T10:45:33.185Z,101734.31
2019-06-27T10:48:01.735Z,101740.94
2019-06-27T10:50:30.201Z,101747.01
2019-06-27T10:52:58.677Z,101743.88
2019-06-27T10:55:27.978Z,101747.48
2019-06-27T10:57:56.500Z,101738.34
2019-06-27T11:00:25.087Z,101728.23
2019-06-27T11:02:53.948Z,101729.48
2019-06-27T11:05:22.491Z,101733.92
2019-06-27T11:07:51.079Z,101739.77
2019-06-27T11:10:19.577Z,101740.66
2019-06-27T11:12:48.138Z,101731.61
2019-06-27T11:15:17.826Z,101735.34
2019-06-27T11:17:46.336Z,101728.48
2019-06-27T11:20:15.971Z,101735.69
2019-06-27T11:22:44.569Z,101731.28
2019-06-27T11:25:13.313Z,101729.55
2019-06-27T11:27:41.831Z,101724.53
2019-06-27T11:30:10.941Z,101723.23
2019-06-27T11:32:40.666Z,101719.62
2019-06-27T11:35:09.573Z,101721.06
2019-06-27T11:37:38.139Z,101718.86
2019-06-27T11:40:11.746Z,101721.84
2019-06-27T11:42:38.535Z,101722.80
2019-06-27T11:45:08.138Z,101708.72
2019-06-27T11:47:38.302Z,101704.01
2019-06-27T11:50:07.084Z,101706.31
2019-06-27T11:52:36.265Z,101701.58
2019-06-27T11:55:05.225Z,101691.39
2019-06-27T11:57:33.781Z,101695.23
2019-06-27T12:00:02.705Z,101694.73
2019-06-27T12:02:31.207Z,101687.48
2019-06-27T12:04:59.751Z,101685.59
2019-06-27T12:07:28.218Z,101676.39
2019-06-27T12:09:56.769Z,101680.50
2019-06-27T12:12:25.306Z,101680.83
2019-06-27T12:14:53.884Z,101671.88
2019-06-27T12:17:22.378Z,101672.38
2019-06-27T12:19:51.348Z,101671.97
2019-06-27T12:22:19.842Z,101686.23
2019-06-27T12:24:48.491Z,101670.66
2019-06-27T12:27:18.585Z,101672.80
2019-06-27T12:29:47.082Z,101669.23
2019-06-27T12:32:15.573Z,101665.50
2019-06-27T12:34:44.177Z,101652.97
2019-06-27T12:37:12.733Z,101647.41
2019-06-27T12:39:41.322Z,101658.84
2019-06-27T12:42:09.829Z,101664.91
2019-06-27T12:44:38.667Z,101659.93
2019-06-27T12:47:07.172Z,101663.31
2019-06-27T12:49:50.036Z,101653.45
2019-06-27T12:52:05.947Z,101639.87
2019-06-27T12:54:35.486Z,101642.61
2019-06-27T12:57:04.043Z,101641.45
2019-06-27T12:59:32.581Z,101639.81
2019-06-27T13:02:01.094Z,101643.39
2019-06-27T13:04:29.682Z,101636.30
2019-06-27T13:06:59.645Z,101639.73
2019-06-27T13:09:29.483Z,101637.00
2019-06-27T13:11:58.062Z,101629.37
2019-06-27T13:14:26.569Z,101621.46
2019-06-27T13:16:55.043Z,101625.84
2019-06-27T13:19:23.566Z,101628.11
2019-06-27T13:21:52.042Z,101619.19
2019-06-27T13:24:20.565Z,101615.79
2019-06-27T13:26:51.011Z,101619.11
2019-06-27T13:29:19.553Z,101619.61
2019-06-27T13:31:48.035Z,101614.53
2019-06-27T13:34:16.625Z,101623.86
2019-06-27T13:36:45.073Z,101598.91
2019-06-27T13:39:13.651Z,101613.75
2019-06-27T13:41:42.158Z,101617.56
2019-06-27T13:44:10.661Z,101608.37
2019-06-27T13:46:39.146Z,101616.18
2019-06-27T13:49:07.759Z,101607.96
2019-06-27T13:51:36.269Z,101597.05
2019-06-27T13:54:04.842Z,101599.79
2019-06-27T13:56:33.377Z,101602.87
2019-06-27T13:59:01.941Z,101598.78
2019-06-27T14:01:30.501Z,101602.25
2019-06-27T14:03:58.994Z,101599.37
2019-06-27T14:06:27.536Z,101597.80
2019-06-27T14:08:56.042Z,101597.50
2019-06-27T14:11:24.919Z,101603.02
2019-06-27T14:13:54.501Z,101594.55
2019-06-27T14:16:23.022Z,101585.63
2019-06-27T14:18:51.594Z,101589.91
2019-06-27T14:21:20.121Z,101587.23
2019-06-27T14:23:48.677Z,101588.31
2019-06-27T14:26:17.598Z,101591.22
2019-06-27T14:28:46.132Z,101590.08
2019-06-27T14:31:14.577Z,101586.90
2019-06-27T14:33:43.166Z,101578.93
2019-06-27T14:36:11.717Z,101580.92
2019-06-27T14:38:40.266Z,101574.98
2019-06-27T14:41:08.767Z,101587.70
2019-06-27T14:43:38.051Z,101585.08
2019-06-27T14:46:06.611Z,101572.78
2019-06-27T14:48:35.152Z,101580.70
2019-06-27T14:51:03.638Z,101578.05
2019-06-27T14:53:32.158Z,101578.87
2019-06-27T14:56:00.649Z,101575.77
2019-06-27T14:58:33.111Z,101569.58
2019-06-27T15:00:59.324Z,101567.17
2019-06-27T15:03:27.803Z,101568.57
2019-06-27T15:05:59.493Z,101577.18
2019-06-27T15:08:26.574Z,101572.67
2019-06-27T15:10:55.100Z,101563.65
2019-06-27T15:13:26.516Z,101556.03
2019-06-27T15:16:10.635Z,101564.83
2019-06-27T15:18:25.249Z,101559.22
2019-06-27T15:20:53.727Z,101554.11
2019-06-27T15:23:22.266Z,101561.02
2019-06-27T15:25:50.727Z,101553.92
2019-06-27T15:28:19.280Z,101550.14
2019-06-27T15:30:48.206Z,101549.68
2019-06-27T15:33:17.325Z,101543.59
2019-06-27T15:35:52.232Z,101557.31
2019-06-27T15:38:19.032Z,101544.95
2019-06-27T15:40:47.616Z,101552.03
2019-06-27T15:43:16.106Z,101555.72
2019-06-27T15:45:44.682Z,101542.97
2019-06-27T15:48:13.188Z,101540.91
2019-06-27T15:50:41.729Z,101544.88
2019-06-27T15:53:10.311Z,101541.27
2019-06-27T15:55:38.854Z,101546.84
2019-06-27T15:58:07.370Z,101546.06
2019-06-27T16:00:39.459Z,101538.59
2019-06-27T16:03:06.832Z,101544.66
2019-06-27T16:05:35.484Z,101540.69
2019-06-27T16:08:04.042Z,101532.09
2019-06-27T16:10:32.878Z,101532.53
2019-06-27T16:13:02.845Z,101535.62
2019-06-27T16:15:31.698Z,101534.91
2019-06-27T16:18:00.165Z,101538.87
2019-06-27T16:20:28.760Z,101537.90
2019-06-27T16:22:57.396Z,101542.80
2019-06-27T16:25:25.987Z,101544.36
2019-06-27T16:27:54.502Z,101543.72
2019-06-27T16:30:25.122Z,101543.80
2019-06-27T16:32:56.555Z,101539.68
2019-06-27T16:35:25.165Z,101544.19
2019-06-27T16:37:53.677Z,101547.73
2019-06-27T16:40:22.309Z,101550.89
2019-06-27T16:42:51.330Z,101541.39
2019-06-27T16:45:20.915Z,101542.55
2019-06-27T16:47:49.420Z,101542.30
2019-06-27T16:50:18.941Z,101527.27
2019-06-27T16:52:47.433Z,101541.16
2019-06-27T16:55:16.010Z,101540.70
2019-06-27T16:57:44.474Z,101534.20
2019-06-27T17:00:13.142Z,101542.73
2019-06-27T17:02:41.725Z,101540.89
2019-06-27T17:05:10.341Z,101540.62
2019-06-27T17:07:38.839Z,101546.89
2019-06-27T17:10:09.274Z,101550.64
2019-06-27T17:12:40.839Z,101545.56
2019-06-27T17:15:09.923Z,101550.31
2019-06-27T17:17:38.438Z,101549.85
2019-06-27T17:20:07.685Z,101547.21
2019-06-27T17:22:36.235Z,101545.33
2019-06-27T17:25:06.441Z,101545.94
2019-06-27T17:27:35.296Z,101551.69
2019-06-27T17:30:06.034Z,101558.56
2019-06-27T17:32:34.544Z,101556.48
2019-06-27T17:35:03.283Z,101558.42
2019-06-27T17:37:32.174Z,101551.57
2019-06-27T17:40:00.753Z,101551.26
2019-06-27T17:42:29.237Z,101549.14
2019-06-27T17:44:57.804Z,101560.80
2019-06-27T17:47:26.357Z,101556.47
2019-06-27T17:49:56.739Z,101561.58
2019-06-27T17:52:31.294Z,101558.81
2019-06-27T17:55:01.515Z,101559.42
2019-06-27T17:57:30.070Z,101561.79
2019-06-27T17:59:58.568Z,101568.78
2019-06-27T18:02:27.218Z,101570.53
2019-06-27T18:04:55.693Z,101567.39
2019-06-27T18:07:24.203Z,101566.23
2019-06-27T18:09:52.803Z,101571.14
2019-06-27T18:12:21.366Z,101567.77
2019-06-27T18:14:49.900Z,101572.39
2019-06-27T18:17:32.382Z,101574.36
2019-06-27T18:19:48.913Z,101581.20
2019-06-27T18:22:17.729Z,101571.06
2019-06-27T18:24:46.250Z,101581.56
2019-06-27T18:27:14.723Z,101584.66
2019-06-27T18:29:43.280Z,101585.97
2019-06-27T18:32:11.777Z,101587.44
2019-06-27T18:34:48.237Z,101590.47
2019-06-27T18:37:29.137Z,101580.20
2019-06-27T18:39:53.215Z,101588.06
2019-06-27T18:42:24.608Z,101587.61
2019-06-27T18:44:53.122Z,101593.48
2019-06-27T18:47:24.452Z,101604.92
2019-06-27T18:49:53.954Z,101595.28
2019-06-27T18:52:22.523Z,101592.05
2019-06-27T18:54:51.064Z,101593.57
2019-06-27T18:57:19.588Z,101591.83
2019-06-27T18:59:48.143Z,101596.86
2019-06-27T19:02:16.622Z,101599.82
2019-06-27T19:04:45.220Z,101603.73
2019-06-27T19:07:13.690Z,101599.84
2019-06-27T19:09:42.219Z,101604.26
2019-06-27T19:12:11.369Z,101600.14
2019-06-27T19:14:39.897Z,101603.44
2019-06-27T19:17:08.404Z,101607.69
2019-06-27T19:19:38.557Z,101605.78
2019-06-27T19:22:08.669Z,101611.70
2019-06-27T19:24:38.858Z,101615.47
2019-06-27T19:27:07.450Z,101621.92
2019-06-27T19:29:35.928Z,101616.67
2019-06-27T19:32:04.401Z,101621.98
2019-06-27T19:34:32.922Z,101637.30
2019-06-27T19:37:01.445Z,101636.23
2019-06-27T19:39:30.281Z,101638.16
2019-06-27T19:41:58.746Z,101644.02
2019-06-27T19:44:27.279Z,101651.08
2019-06-27T19:46:55.782Z,101655.29
2019-06-27T19:49:24.318Z,101655.39
2019-06-27T19:51:52.824Z,101662.25
2019-06-27T19:54:21.367Z,101664.23
2019-06-27T19:56:49.876Z,101667.69
2019-06-27T19:59:25.000Z,101662.20
2019-06-27T20:01:51.697Z,101668.08
2019-06-27T20:04:41.391Z,101668.41
2019-06-27T20:07:11.833Z,101673.50
2019-06-27T20:09:40.342Z,101671.36
2019-06-27T20:12:08.932Z,101676.59
2019-06-27T20:14:37.443Z,101674.58
2019-06-27T20:17:06.135Z,101676.75
2019-06-27T20:19:34.652Z,101680.10
2019-06-27T20:22:03.187Z,101688.78
2019-06-27T20:24:33.149Z,101691.50
2019-06-27T20:27:01.711Z,101692.88
2019-06-27T20:29:30.905Z,101693.11
2019-06-27T20:31:59.672Z,101685.16
2019-06-27T20:34:28.113Z,101695.55
2019-06-27T20:36:56.764Z,101695.77
2019-06-27T20:39:25.226Z,101702.56
2019-06-27T20:41:54.113Z,101694.27
2019-06-27T20:44:24.853Z,101695.52
2019-06-27T20:46:53.498Z,101708.84
2019-06-27T20:49:21.965Z,101704.92
2019-06-27T20:51:51.583Z,101703.83
2019-06-27T20:54:20.200Z,101703.77
2019-06-27T20:56:48.797Z,101714.20
2019-06-27T20:59:17.307Z,101718.88
2019-06-27T21:01:45.843Z,101713.80
2019-06-27T21:04:14.354Z,101715.28
2019-06-27T21:06:42.869Z,101713.80
2019-06-27T21:09:11.422Z,101720.93
2019-06-27T21:11:39.963Z,101718.97
2019-06-27T21:14:08.429Z,101726.22
2019-06-27T21:16:36.928Z,101721.37
2019-06-27T21:19:05.437Z,101728.60
2019-06-27T21:21:34.038Z,101730.86
2019-06-27T21:24:02.617Z,101741.34
2019-06-27T21:26:31.211Z,101734.55
2019-06-27T21:28:59.692Z,101738.19
2019-06-27T21:31:28.265Z,101744.88
2019-06-27T21:33:56.749Z,101732.30
2019-06-27T21:36:25.292Z,101739.11
2019-06-27T21:39:07.205Z,101741.56
2019-06-27T21:41:24.244Z,101740.67
2019-06-27T21:43:52.812Z,101743.84
2019-06-27T21:46:21.376Z,101745.53
2019-06-27T21:48:49.899Z,101744.79
2019-06-27T21:51:18.452Z,101744.61
2019-06-27T21:53:46.950Z,101740.33
2019-06-27T21:56:15.512Z,101742.06
2019-06-27T21:58:44.036Z,101744.10
2019-06-27T22:01:12.537Z,101744.23
2019-06-27T22:03:41.118Z,101750.84
2019-06-27T22:06:09.620Z,101746.88
2019-06-27T22:08:38.140Z,101750.80
2019-06-27T22:11:06.581Z,101750.27
2019-06-27T22:13:35.206Z,101747.63
2019-06-27T22:16:04.454Z,101755.70
2019-06-27T22:18:33.006Z,101751.77
2019-06-27T22:21:01.861Z,101747.20
2019-06-27T22:23:30.426Z,101755.27
2019-06-27T22:25:58.928Z,101751.78
2019-06-27T22:28:27.650Z,101752.91
2019-06-27T22:30:56.115Z,101751.02
2019-06-27T22:33:24.648Z,101758.87
2019-06-27T22:35:53.109Z,101756.80
2019-06-27T22:38:39.561Z,101751.69
2019-06-27T22:41:26.101Z,101755.42
2019-06-27T22:44:12.123Z,101757.31
2019-06-27T22:46:58.488Z,101754.24
2019-06-27T22:49:26.516Z,101744.87
2019-06-27T22:52:14.961Z,101740.47
2019-06-27T22:54:45.244Z,101749.49
2019-06-27T22:57:14.053Z,101754.66
2019-06-27T22:59:42.589Z,101749.95
2019-06-27T23:02:11.116Z,101756.02
2019-06-27T23:04:39.737Z,101762.61
2019-06-27T23:07:08.275Z,101760.69
2019-06-27T23:09:36.827Z,101760.89
2019-06-27T23:12:05.296Z,101761.28
2019-06-27T23:14:33.820Z,101759.06
2019-06-27T23:17:02.291Z,101761.91
2019-06-27T23:19:30.822Z,101757.98
2019-06-27T23:21:59.360Z,101755.14
2019-06-27T23:24:27.870Z,101767.23
2019-06-27T23:26:56.358Z,101748.33
2019-06-27T23:29:24.900Z,101751.86
2019-06-27T23:31:53.781Z,101755.22
2019-06-27T23:34:22.307Z,101748.63
2019-06-27T23:36:51.124Z,101761.05
2019-06-27T23:39:19.630Z,101758.53
2019-06-27T23:41:48.156Z,101751.13
2019-06-27T23:44:16.701Z,101743.05
2019-06-27T23:46:45.181Z,101739.95
2019-06-27T23:49:13.701Z,101744.53
2019-06-27T23:51:42.273Z,101747.90
2019-06-27T23:54:10.822Z,101739.45
2019-06-27T23:56:39.414Z,101749.18
2019-06-27T23:59:07.951Z,101737.95
